sensor_id;sensor_type;location;lat;lon;timestamp;pressure;altitude;pressure_sealevel;temperature;humidity
77537;BME280;67783;51.656;16.106;2023-05-10T00:00:18;101714.29;;;11.03;51.15
77537;BME280;67783;51.656;16.106;2023-05-10T00:03:26;101708.43;;;10.97;52.81
77537;BME280;67783;51.656;16.106;2023-05-10T00:06:27;101705.55;;;11.00;50.93
77537;BME280;67783;51.656;16.106;2023-05-10T00:09:29;101701.32;;;10.96;51.61
77537;BME280;67783;51.656;16.106;2023-05-10T00:12:30;101693.16;;;10.97;50.84
77537;BME280;67783;51.656;16.106;2023-05-10T00:15:32;101695.27;;;10.92;51.35
77537;BME280;67783;51.656;16.106;2023-05-10T00:18:44;101699.17;;;10.87;53.03
77537;BME280;67783;51.656;16.106;2023-05-10T00:21:45;101692.17;;;10.84;51.29
77537;BME280;67783;51.656;16.106;2023-05-10T00:24:47;101692.59;;;10.77;52.11
77537;BME280;67783;51.656;16.106;2023-05-10T00:27:49;101691.65;;;10.78;51.32
77537;BME280;67783;51.656;16.106;2023-05-10T00:30:50;101689.41;;;10.70;51.72
77537;BME280;67783;51.656;16.106;2023-05-10T00:33:52;101688.46;;;10.71;51.23
77537;BME280;67783;51.656;16.106;2023-05-10T00:36:53;101690.62;;;10.64;51.76
77537;BME280;67783;51.656;16.106;2023-05-10T00:39:58;101690.99;;;10.58;53.22
77537;BME280;67783;51.656;16.106;2023-05-10T00:43:00;101688.38;;;10.57;51.55
77537;BME280;67783;51.656;16.106;2023-05-10T00:46:03;101678.98;;;10.50;52.40
77537;BME280;67783;51.656;16.106;2023-05-10T00:49:05;101685.28;;;10.49;51.70
77537;BME280;67783;51.656;16.106;2023-05-10T00:52:08;101675.94;;;10.40;52.34
77537;BME280;67783;51.656;16.106;2023-05-10T00:55:19;101675.44;;;10.34;54.14
77537;BME280;67783;51.656;16.106;2023-05-10T00:58:21;101673.70;;;10.33;52.20
77537;BME280;67783;51.656;16.106;2023-05-10T01:01:29;101674.20;;;10.24;52.79
77537;BME280;67783;51.656;16.106;2023-05-10T01:04:31;101667.15;;;10.23;52.24
77537;BME280;67783;51.656;16.106;2023-05-10T01:07:32;101669.21;;;10.17;52.54
77537;BME280;67783;51.656;16.106;2023-05-10T01:10:40;101669.42;;;10.13;54.72
77537;BME280;67783;51.656;16.106;2023-05-10T01:13:47;101662.41;;;10.10;52.92
77537;BME280;67783;51.656;16.106;2023-05-10T01:16:52;101668.12;;;10.04;53.11
77537;BME280;67783;51.656;16.106;2023-05-10T01:19:54;101670.98;;;10.01;52.79
77537;BME280;67783;51.656;16.106;2023-05-10T01:29:44;101665.13;;;9.78;55.80
77537;BME280;67783;51.656;16.106;2023-05-10T01:39:27;101657.86;;;9.64;54.91
77537;BME280;67783;51.656;16.106;2023-05-10T01:49:20;101649.52;;;9.53;55.16
77537;BME280;67783;51.656;16.106;2023-05-10T01:52:28;101659.00;;;9.43;56.23
77537;BME280;67783;51.656;16.106;2023-05-10T01:55:35;101660.73;;;9.44;54.57
77537;BME280;67783;51.656;16.106;2023-05-10T01:58:43;101652.95;;;9.39;54.86
77537;BME280;67783;51.656;16.106;2023-05-10T02:01:47;101650.74;;;9.30;57.63
77537;BME280;67783;51.656;16.106;2023-05-10T02:04:50;101656.96;;;9.31;55.35
77537;BME280;67783;51.656;16.106;2023-05-10T02:07:54;101658.08;;;9.26;55.95
77537;BME280;67783;51.656;16.106;2023-05-10T02:10:58;101650.98;;;9.25;55.27
77537;BME280;67783;51.656;16.106;2023-05-10T02:14:01;101648.62;;;9.19;55.40
77537;BME280;67783;51.656;16.106;2023-05-10T02:17:07;101646.03;;;9.18;57.82
77537;BME280;67783;51.656;16.106;2023-05-10T02:20:11;101648.62;;;9.19;55.64
77537;BME280;67783;51.656;16.106;2023-05-10T02:23:15;101643.37;;;9.18;55.93
77537;BME280;67783;51.656;16.106;2023-05-10T02:26:20;101641.55;;;9.18;55.57
77537;BME280;67783;51.656;16.106;2023-05-10T02:29:26;101637.14;;;9.17;55.46
77537;BME280;67783;51.656;16.106;2023-05-10T02:32:30;101639.18;;;9.12;57.90
77537;BME280;67783;51.656;16.106;2023-05-10T02:35:32;101646.27;;;9.13;56.00
77537;BME280;67783;51.656;16.106;2023-05-10T02:38:35;101638.48;;;9.09;56.74
77537;BME280;67783;51.656;16.106;2023-05-10T02:41:38;101638.48;;;9.09;55.88
77537;BME280;67783;51.656;16.106;2023-05-10T02:44:42;101643.13;;;9.05;56.17
77537;BME280;67783;51.656;16.106;2023-05-10T02:47:50;101634.80;;;8.94;58.12
77537;BME280;67783;51.656;16.106;2023-05-10T02:50:55;101643.54;;;8.98;56.97
77537;BME280;67783;51.656;16.106;2023-05-10T02:54:01;101636.51;;;8.95;56.96
77537;BME280;67783;51.656;16.106;2023-05-10T02:57:04;101631.03;;;8.98;56.37
77537;BME280;67783;51.656;16.106;2023-05-10T03:00:07;101634.80;;;8.94;56.97
77537;BME280;67783;51.656;16.106;2023-05-10T03:03:11;101640.16;;;8.94;58.95
77537;BME280;67783;51.656;16.106;2023-05-10T03:06:13;101632.83;;;8.98;56.83
77537;BME280;67783;51.656;16.106;2023-05-10T03:09:17;101631.96;;;8.97;57.65
77537;BME280;67783;51.656;16.106;2023-05-10T03:12:31;101640.52;;;9.04;56.60
77537;BME280;67783;51.656;16.106;2023-05-10T03:15:47;101636.04;;;9.04;56.92
77537;BME280;67783;51.656;16.106;2023-05-10T03:22:04;101633.30;;;9.06;56.85
77537;BME280;67783;51.656;16.106;2023-05-10T03:25:10;101636.04;;;9.04;57.21
77537;BME280;67783;51.656;16.106;2023-05-10T03:28:14;101639.52;;;9.06;59.21
77537;BME280;67783;51.656;16.106;2023-05-10T03:31:17;101639.18;;;9.12;56.90
77537;BME280;67783;51.656;16.106;2023-05-10T03:34:25;101625.64;;;9.15;57.42
77537;BME280;67783;51.656;16.106;2023-05-10T03:37:27;101626.10;;;9.23;56.91
77537;BME280;67783;51.656;16.106;2023-05-10T03:40:29;101634.00;;;9.26;56.92
77537;BME280;67783;51.656;16.106;2023-05-10T03:43:34;101632.72;;;9.34;58.85
77537;BME280;67783;51.656;16.106;2023-05-10T03:46:36;101627.82;;;9.90;56.68
77537;BME280;67783;51.656;16.106;2023-05-10T03:49:37;101623.98;;;10.88;55.22
77537;BME280;67783;51.656;16.106;2023-05-10T03:52:38;101629.45;;;11.45;53.32
77537;BME280;67783;51.656;16.106;2023-05-10T03:55:40;101621.41;;;11.59;53.09
77537;BME280;67783;51.656;16.106;2023-05-10T03:58:42;101623.75;;;11.79;52.86
77537;BME280;67783;51.656;16.106;2023-05-10T04:01:43;101627.35;;;12.07;52.52
77537;BME280;67783;51.656;16.106;2023-05-10T04:04:49;101619.99;;;12.37;52.00
77537;BME280;67783;51.656;16.106;2023-05-10T04:07:51;101622.36;;;12.68;51.58
77537;BME280;67783;51.656;16.106;2023-05-10T04:10:52;101632.02;;;12.98;50.95
77537;BME280;67783;51.656;16.106;2023-05-10T04:13:54;101622.73;;;13.28;50.26
77537;BME280;67783;51.656;16.106;2023-05-10T04:16:55;101624.59;;;13.53;49.73
77537;BME280;67783;51.656;16.106;2023-05-10T04:19:57;101626.49;;;13.76;49.60
77537;BME280;67783;51.656;16.106;2023-05-10T04:22:58;101625.82;;;13.98;49.14
77537;BME280;67783;51.656;16.106;2023-05-10T04:26:03;101622.77;;;14.15;47.19
77537;BME280;67783;51.656;16.106;2023-05-10T04:29:05;101613.44;;;14.32;48.38
77537;BME280;67783;51.656;16.106;2023-05-10T04:32:06;101621.57;;;14.56;47.91
77537;BME280;67783;51.656;16.106;2023-05-10T04:35:10;101618.59;;;14.83;48.09
77537;BME280;67783;51.656;16.106;2023-05-10T04:38:12;101619.80;;;15.02;47.41
77537;BME280;67783;51.656;16.106;2023-05-10T04:41:24;101613.10;;;15.19;45.99
77537;BME280;67783;51.656;16.106;2023-05-10T04:44:26;101623.92;;;15.30;47.27
77537;BME280;67783;51.656;16.106;2023-05-10T04:47:28;101612.14;;;15.31;46.73
77537;BME280;67783;51.656;16.106;2023-05-10T04:50:30;101610.67;;;15.38;47.20
77537;BME280;67783;51.656;16.106;2023-05-10T04:53:32;101602.10;;;15.44;47.16
77537;BME280;67783;51.656;16.106;2023-05-10T04:56:44;101607.97;;;15.38;46.48
77537;BME280;67783;51.656;16.106;2023-05-10T04:59:46;101610.04;;;15.23;47.05
77537;BME280;67783;51.656;16.106;2023-05-10T05:02:48;101606.16;;;15.04;47.11
77537;BME280;67783;51.656;16.106;2023-05-10T05:05:49;101606.41;;;15.01;47.57
77537;BME280;67783;51.656;16.106;2023-05-10T05:08:51;101602.71;;;14.91;47.51
77537;BME280;67783;51.656;16.106;2023-05-10T05:11:52;101602.81;;;14.89;47.75
77537;BME280;67783;51.656;16.106;2023-05-10T05:14:54;101605.35;;;14.79;47.72
77537;BME280;67783;51.656;16.106;2023-05-10T05:17:59;101606.56;;;14.75;47.79
77537;BME280;67783;51.656;16.106;2023-05-10T05:21:01;101602.38;;;14.71;48.00
77537;BME280;67783;51.656;16.106;2023-05-10T05:24:03;101597.66;;;14.62;48.09
77537;BME280;67783;51.656;16.106;2023-05-10T05:27:05;101591.20;;;14.65;48.34
77537;BME280;67783;51.656;16.106;2023-05-10T05:30:08;101598.95;;;14.69;48.24
77537;BME280;67783;51.656;16.106;2023-05-10T05:33:20;101590.50;;;14.74;48.25
77537;BME280;67783;51.656;16.106;2023-05-10T05:36:21;101606.80;;;14.72;48.20
77537;BME280;67783;51.656;16.106;2023-05-10T05:39:23;101593.27;;;14.61;48.23
77537;BME280;67783;51.656;16.106;2023-05-10T05:42:24;101594.10;;;14.62;48.36
77537;BME280;67783;51.656;16.106;2023-05-10T05:45:26;101603.78;;;14.53;48.49
77537;BME280;67783;51.656;16.106;2023-05-10T05:48:29;101599.34;;;14.52;48.66
77537;BME280;67783;51.656;16.106;2023-05-10T05:51:31;101596.17;;;14.58;48.73
77537;BME280;67783;51.656;16.106;2023-05-10T05:54:36;101586.48;;;14.56;48.84
77537;BME280;67783;51.656;16.106;2023-05-10T05:57:37;101587.87;;;14.61;48.54
77537;BME280;67783;51.656;16.106;2023-05-10T06:00:40;101594.41;;;14.70;48.47
77537;BME280;67783;51.656;16.106;2023-05-10T06:03:42;101586.94;;;14.73;48.48
77537;BME280;67783;51.656;16.106;2023-05-10T06:06:44;101592.72;;;14.80;48.19
77537;BME280;67783;51.656;16.106;2023-05-10T06:09:57;101597.42;;;14.89;47.73
77537;BME280;67783;51.656;16.106;2023-05-10T06:12:58;101610.81;;;14.91;48.05
77537;BME280;67783;51.656;16.106;2023-05-10T06:16:01;101600.49;;;14.96;47.80
77537;BME280;67783;51.656;16.106;2023-05-10T06:19:03;101596.22;;;15.04;47.94
77537;BME280;67783;51.656;16.106;2023-05-10T06:22:05;101602.65;;;15.14;47.97
77537;BME280;67783;51.656;16.106;2023-05-10T06:25:17;101603.73;;;15.12;46.92
77537;BME280;67783;51.656;16.106;2023-05-10T06:28:19;101605.20;;;15.16;46.95
77537;BME280;67783;51.656;16.106;2023-05-10T06:31:21;101603.99;;;15.20;47.24
77537;BME280;67783;51.656;16.106;2023-05-10T06:34:22;101603.53;;;15.26;47.26
77537;BME280;67783;51.656;16.106;2023-05-10T06:37:24;101602.30;;;15.30;46.68
77537;BME280;67783;51.656;16.106;2023-05-10T06:40:25;101596.45;;;15.36;46.72
77537;BME280;67783;51.656;16.106;2023-05-10T06:43:27;101605.89;;;15.42;46.63
77537;BME280;67783;51.656;16.106;2023-05-10T06:46:32;101594.39;;;15.51;46.21
77537;BME280;67783;51.656;16.106;2023-05-10T06:49:33;101590.09;;;15.59;46.68
77537;BME280;67783;51.656;16.106;2023-05-10T06:52:35;101590.09;;;15.70;46.45
77537;BME280;67783;51.656;16.106;2023-05-10T06:55:36;101591.09;;;15.81;46.28
77537;BME280;67783;51.656;16.106;2023-05-10T06:58:38;101582.09;;;15.91;46.13
77537;BME280;67783;51.656;16.106;2023-05-10T07:01:39;101580.63;;;15.98;46.17
77537;BME280;67783;51.656;16.106;2023-05-10T07:04:41;101578.27;;;16.05;45.87
77537;BME280;67783;51.656;16.106;2023-05-10T07:07:46;101580.34;;;16.12;45.41
77537;BME280;67783;51.656;16.106;2023-05-10T07:10:48;101575.38;;;16.29;45.93
77537;BME280;67783;51.656;16.106;2023-05-10T07:13:49;101575.00;;;16.33;45.16
77537;BME280;67783;51.656;16.106;2023-05-10T07:16:51;101574.73;;;16.47;45.38
77537;BME280;67783;51.656;16.106;2023-05-10T07:19:53;101563.77;;;16.60;45.57
77537;BME280;67783;51.656;16.106;2023-05-10T07:22:54;101562.45;;;16.75;45.55
77537;BME280;67783;51.656;16.106;2023-05-10T07:25:56;101566.23;;;16.84;44.71
77537;BME280;67783;51.656;16.106;2023-05-10T07:29:01;101561.13;;;16.90;44.03
77537;BME280;67783;51.656;16.106;2023-05-10T07:32:04;101561.79;;;17.03;44.74
77537;BME280;67783;51.656;16.106;2023-05-10T07:35:07;101550.05;;;17.14;44.69
77537;BME280;67783;51.656;16.106;2023-05-10T07:38:09;101546.40;;;17.25;44.19
77537;BME280;67783;51.656;16.106;2023-05-10T07:41:12;101549.41;;;17.31;44.23
77537;BME280;67783;51.656;16.106;2023-05-10T07:44:22;101540.08;;;17.45;43.71
77537;BME280;67783;51.656;16.106;2023-05-10T07:47:23;101547.89;;;17.59;44.10
77537;BME280;67783;51.656;16.106;2023-05-10T07:50:25;101544.34;;;17.68;43.81
77537;BME280;67783;51.656;16.106;2023-05-10T07:53:27;101541.39;;;17.81;43.95
77537;BME280;67783;51.656;16.106;2023-05-10T07:56:31;101545.00;;;17.91;43.73
77537;BME280;67783;51.656;16.106;2023-05-10T07:59:42;101548.86;;;17.98;42.84
77537;BME280;67783;51.656;16.106;2023-05-10T08:02:45;101539.45;;;18.02;42.85
77537;BME280;67783;51.656;16.106;2023-05-10T08:05:46;101538.74;;;18.00;42.70
77537;BME280;67783;51.656;16.106;2023-05-10T08:08:49;101540.22;;;18.14;42.76
77537;BME280;67783;51.656;16.106;2023-05-10T08:11:52;101541.05;;;18.14;41.79
77537;BME280;67783;51.656;16.106;2023-05-10T08:15:03;101543.91;;;18.22;41.56
77537;BME280;67783;51.656;16.106;2023-05-10T08:18:06;101540.36;;;18.31;42.13
77537;BME280;67783;51.656;16.106;2023-05-10T08:21:07;101536.53;;;18.34;41.68
77537;BME280;67783;51.656;16.106;2023-05-10T08:24:09;101538.97;;;18.47;42.49
77537;BME280;67783;51.656;16.106;2023-05-10T08:27:11;101542.09;;;18.52;41.65
77537;BME280;67783;51.656;16.106;2023-05-10T08:30:23;101540.84;;;18.56;40.88
77537;BME280;67783;51.656;16.106;2023-05-10T08:33:25;101544.13;;;18.69;41.48
77537;BME280;67783;51.656;16.106;2023-05-10T08:36:27;101539.83;;;18.76;41.33
77537;BME280;67783;51.656;16.106;2023-05-10T08:39:29;101539.26;;;18.82;41.74
77537;BME280;67783;51.656;16.106;2023-05-10T08:42:34;101537.23;;;18.94;41.66
77537;BME280;67783;51.656;16.106;2023-05-10T08:45:44;101538.83;;;18.96;39.97
77537;BME280;67783;51.656;16.106;2023-05-10T08:48:50;101542.93;;;19.10;41.31
77537;BME280;67783;51.656;16.106;2023-05-10T08:51:55;101535.76;;;19.18;41.28
77537;BME280;67783;51.656;16.106;2023-05-10T08:54:58;101534.02;;;19.27;40.95
77537;BME280;67783;51.656;16.106;2023-05-10T08:58:00;101541.44;;;19.34;40.55
77537;BME280;67783;51.656;16.106;2023-05-10T09:01:05;101521.40;;;19.35;40.15
77537;BME280;67783;51.656;16.106;2023-05-10T09:04:07;101525.69;;;19.48;40.62
77537;BME280;67783;51.656;16.106;2023-05-10T09:07:08;101540.72;;;19.42;39.67
77537;BME280;67783;51.656;16.106;2023-05-10T09:10:13;101533.70;;;19.49;40.27
77537;BME280;67783;51.656;16.106;2023-05-10T09:13:17;101524.06;;;19.55;40.65
77537;BME280;67783;51.656;16.106;2023-05-10T09:16:25;101524.79;;;19.57;39.18
77537;BME280;67783;51.656;16.106;2023-05-10T09:19:27;101529.48;;;19.64;40.18
77537;BME280;67783;51.656;16.106;2023-05-10T09:22:30;101532.30;;;19.72;40.18
77537;BME280;67783;51.656;16.106;2023-05-10T09:25:31;101524.15;;;19.72;40.21
77537;BME280;67783;51.656;16.106;2023-05-10T09:31:52;101532.58;;;19.79;39.38
77537;BME280;67783;51.656;16.106;2023-05-10T09:34:56;101535.84;;;19.83;39.98
77537;BME280;67783;51.656;16.106;2023-05-10T09:38:01;101534.46;;;19.96;40.18
77537;BME280;67783;51.656;16.106;2023-05-10T09:41:22;101533.15;;;20.00;38.83
77537;BME280;67783;51.656;16.106;2023-05-10T09:44:25;101525.70;;;20.02;39.71
77537;BME280;67783;51.656;16.106;2023-05-10T09:47:27;101534.31;;;19.98;39.18
77537;BME280;67783;51.656;16.106;2023-05-10T09:50:38;101538.77;;;19.99;38.41
77537;BME280;67783;51.656;16.106;2023-05-10T09:53:41;101535.99;;;20.08;39.35
77537;BME280;67783;51.656;16.106;2023-05-10T09:56:43;101543.08;;;20.19;39.45
77537;BME280;67783;51.656;16.106;2023-05-10T09:59:45;101535.25;;;20.34;39.71
77537;BME280;67783;51.656;16.106;2023-05-10T10:02:55;101532.93;;;20.39;38.94
77537;BME280;67783;51.656;16.106;2023-05-10T10:05:59;101526.02;;;20.44;38.71
77537;BME280;67783;51.656;16.106;2023-05-10T10:09:01;101523.58;;;20.59;39.06
77537;BME280;67783;51.656;16.106;2023-05-10T10:12:03;101530.21;;;20.56;38.00
77537;BME280;67783;51.656;16.106;2023-05-10T10:15:07;101519.93;;;20.68;38.54
77537;BME280;67783;51.656;16.106;2023-05-10T10:18:13;101523.72;;;20.75;38.57
77537;BME280;67783;51.656;16.106;2023-05-10T10:21:20;101520.24;;;20.83;37.78
77537;BME280;67783;51.656;16.106;2023-05-10T10:24:22;101516.48;;;20.84;37.84
77537;BME280;67783;51.656;16.106;2023-05-10T10:30:48;101518.40;;;20.91;36.70
77537;BME280;67783;51.656;16.106;2023-05-10T10:37:06;101502.19;;;21.07;36.90
77537;BME280;67783;51.656;16.106;2023-05-10T10:43:29;101513.72;;;21.01;37.47
77537;BME280;67783;51.656;16.106;2023-05-10T10:46:34;101506.78;;;21.07;37.25
77537;BME280;67783;51.656;16.106;2023-05-10T10:49:44;101494.16;;;21.06;36.60
77537;BME280;67783;51.656;16.106;2023-05-10T10:52:50;101492.04;;;21.17;37.26
77537;BME280;67783;51.656;16.106;2023-05-10T10:59:08;101498.88;;;21.22;36.04
77537;BME280;67783;51.656;16.106;2023-05-10T11:02:10;101496.91;;;21.32;36.73
77537;BME280;67783;51.656;16.106;2023-05-10T11:08:33;101493.85;;;21.35;35.67
77537;BME280;67783;51.656;16.106;2023-05-10T11:11:36;101500.85;;;21.37;36.11
77537;BME280;67783;51.656;16.106;2023-05-10T11:14:43;101467.06;;;21.30;36.33
77537;BME280;67783;51.656;16.106;2023-05-10T11:17:44;101471.78;;;21.54;36.75
77537;BME280;67783;51.656;16.106;2023-05-10T11:24:14;101484.78;;;21.60;36.91
77537;BME280;67783;51.656;16.106;2023-05-10T11:27:16;101484.32;;;21.73;36.55
77537;BME280;67783;51.656;16.106;2023-05-10T11:30:18;101477.02;;;21.81;36.41
77537;BME280;67783;51.656;16.106;2023-05-10T11:33:22;101481.98;;;21.86;35.01
77537;BME280;67783;51.656;16.106;2023-05-10T11:36:27;101483.34;;;21.82;35.37
77537;BME280;67783;51.656;16.106;2023-05-10T11:39:31;101472.88;;;21.69;35.49
77537;BME280;67783;51.656;16.106;2023-05-10T11:42:34;101473.27;;;21.82;35.51
77537;BME280;67783;51.656;16.106;2023-05-10T11:45:35;101485.01;;;21.83;35.74
77537;BME280;67783;51.656;16.106;2023-05-10T11:48:43;101486.92;;;21.82;34.51
77537;BME280;67783;51.656;16.106;2023-05-10T11:51:45;101483.36;;;21.90;35.57
77537;BME280;67783;51.656;16.106;2023-05-10T11:54:53;101492.40;;;21.90;36.01
77537;BME280;67783;51.656;16.106;2023-05-10T11:58:00;101487.77;;;21.91;35.66
77537;BME280;67783;51.656;16.106;2023-05-10T12:01:04;101476.91;;;21.99;35.70
77537;BME280;67783;51.656;16.106;2023-05-10T12:04:08;101479.17;;;22.20;35.13
77537;BME280;67783;51.656;16.106;2023-05-10T12:07:09;101488.24;;;22.36;35.16
77537;BME280;67783;51.656;16.106;2023-05-10T12:10:13;101493.55;;;22.38;34.71
77537;BME280;67783;51.656;16.106;2023-05-10T12:13:19;101492.89;;;22.44;34.80
77537;BME280;67783;51.656;16.106;2023-05-10T12:16:25;101496.63;;;22.35;35.05
77537;BME280;67783;51.656;16.106;2023-05-10T12:19:37;101499.01;;;22.38;34.51
77537;BME280;67783;51.656;16.106;2023-05-10T12:22:39;101496.29;;;22.46;35.48
77537;BME280;67783;51.656;16.106;2023-05-10T12:25:41;101480.40;;;22.41;34.53
77537;BME280;67783;51.656;16.106;2023-05-10T12:28:43;101483.48;;;22.38;34.92
77537;BME280;67783;51.656;16.106;2023-05-10T12:31:55;101486.38;;;22.53;34.77
77537;BME280;67783;51.656;16.106;2023-05-10T12:34:57;101492.39;;;22.65;34.35
77537;BME280;67783;51.656;16.106;2023-05-10T12:37:59;101484.22;;;22.73;33.67
77537;BME280;67783;51.656;16.106;2023-05-10T12:41:03;101497.37;;;22.77;33.60
77537;BME280;67783;51.656;16.106;2023-05-10T12:44:05;101488.10;;;22.86;34.75
77537;BME280;67783;51.656;16.106;2023-05-10T12:47:07;101485.56;;;22.85;34.98
77537;BME280;67783;51.656;16.106;2023-05-10T12:50:11;101492.56;;;22.87;33.92
77537;BME280;67783;51.656;16.106;2023-05-10T12:53:16;101489.81;;;22.95;34.76
77537;BME280;67783;51.656;16.106;2023-05-10T12:56:17;101483.69;;;22.93;34.98
77537;BME280;67783;51.656;16.106;2023-05-10T12:59:19;101495.99;;;22.89;35.05
77537;BME280;67783;51.656;16.106;2023-05-10T13:02:21;101490.19;;;22.84;34.87
77537;BME280;67783;51.656;16.106;2023-05-10T13:05:32;101492.56;;;22.79;35.23
77537;BME280;67783;51.656;16.106;2023-05-10T13:08:34;101497.02;;;22.88;34.94
77537;BME280;67783;51.656;16.106;2023-05-10T13:11:36;101477.51;;;22.99;35.27
77537;BME280;67783;51.656;16.106;2023-05-10T13:14:37;101487.27;;;23.02;34.80
77537;BME280;67783;51.656;16.106;2023-05-10T13:17:41;101491.02;;;23.01;34.68
77537;BME280;67783;51.656;16.106;2023-05-10T13:20:53;101476.97;;;23.12;34.17
77537;BME280;67783;51.656;16.106;2023-05-10T13:23:56;101482.40;;;23.28;34.87
77537;BME280;67783;51.656;16.106;2023-05-10T13:26:58;101479.86;;;23.27;34.46
77537;BME280;67783;51.656;16.106;2023-05-10T13:29:59;101482.94;;;23.16;34.71
77537;BME280;67783;51.656;16.106;2023-05-10T13:33:01;101481.26;;;22.98;34.97
77537;BME280;67783;51.656;16.106;2023-05-10T13:36:13;101483.50;;;22.87;33.85
77537;BME280;67783;51.656;16.106;2023-05-10T13:39:15;101473.58;;;22.86;34.73
77537;BME280;67783;51.656;16.106;2023-05-10T13:42:17;101473.76;;;22.68;34.40
77537;BME280;67783;51.656;16.106;2023-05-10T13:45:19;101472.41;;;22.80;34.83
77537;BME280;67783;51.656;16.106;2023-05-10T13:48:20;101467.61;;;22.82;34.43
77537;BME280;67783;51.656;16.106;2023-05-10T13:51:22;101461.13;;;22.83;34.83
77537;BME280;67783;51.656;16.106;2023-05-10T13:54:24;101466.59;;;22.83;34.30
77537;BME280;67783;51.656;16.106;2023-05-10T13:57:30;101463.85;;;22.83;33.27
77537;BME280;67783;51.656;16.106;2023-05-10T14:00:31;101461.98;;;22.84;33.91
77537;BME280;67783;51.656;16.106;2023-05-10T14:03:33;101475.48;;;22.85;33.90
77537;BME280;67783;51.656;16.106;2023-05-10T14:06:34;101471.38;;;22.89;33.80
77537;BME280;67783;51.656;16.106;2023-05-10T14:09:37;101460.95;;;22.93;33.95
77537;BME280;67783;51.656;16.106;2023-05-10T14:12:38;101460.09;;;22.92;33.91
77537;BME280;67783;51.656;16.106;2023-05-10T14:15:40;101463.52;;;22.78;33.94
77537;BME280;67783;51.656;16.106;2023-05-10T14:18:45;101458.73;;;22.64;33.32
77537;BME280;67783;51.656;16.106;2023-05-10T14:21:47;101452.05;;;22.59;34.10
77537;BME280;67783;51.656;16.106;2023-05-10T14:24:49;101445.38;;;22.61;33.31
77537;BME280;67783;51.656;16.106;2023-05-10T14:27:51;101439.59;;;22.64;33.36
77537;BME280;67783;51.656;16.106;2023-05-10T14:30:55;101447.80;;;22.56;33.18
77537;BME280;67783;51.656;16.106;2023-05-10T14:34:05;101444.02;;;22.57;33.11
77537;BME280;67783;51.656;16.106;2023-05-10T14:39:45;101433.78;;;22.83;33.71
77537;BME280;67783;51.656;16.106;2023-05-10T14:42:47;101437.50;;;22.98;33.30
77537;BME280;67783;51.656;16.106;2023-05-10T14:45:49;101431.18;;;23.06;33.28
77537;BME280;67783;51.656;16.106;2023-05-10T14:48:50;101434.06;;;23.13;32.97
77537;BME280;67783;51.656;16.106;2023-05-10T14:51:52;101440.89;;;23.17;31.92
77537;BME280;67783;51.656;16.106;2023-05-10T14:54:54;101444.32;;;23.19;32.33
77537;BME280;67783;51.656;16.106;2023-05-10T14:58:00;101443.77;;;23.23;31.45
77537;BME280;67783;51.656;16.106;2023-05-10T15:01:01;101449.06;;;23.25;32.17
77537;BME280;67783;51.656;16.106;2023-05-10T15:04:06;101448.34;;;23.47;31.38
77537;BME280;67783;51.656;16.106;2023-05-10T15:07:07;101442.75;;;23.71;31.36
77537;BME280;67783;51.656;16.106;2023-05-10T15:10:10;101451.46;;;23.75;29.78
77537;BME280;67783;51.656;16.106;2023-05-10T15:13:20;101452.52;;;23.66;29.42
77537;BME280;67783;51.656;16.106;2023-05-10T15:16:22;101451.38;;;23.60;31.01
77537;BME280;67783;51.656;16.106;2023-05-10T15:19:23;101454.77;;;23.62;32.41
77537;BME280;67783;51.656;16.106;2023-05-10T15:22:25;101453.42;;;23.58;32.36
77537;BME280;67783;51.656;16.106;2023-05-10T15:25:29;101455.01;;;23.44;32.79
77537;BME280;67783;51.656;16.106;2023-05-10T15:28:41;101453.09;;;23.53;32.42
77537;BME280;67783;51.656;16.106;2023-05-10T15:31:42;101453.38;;;23.66;31.98
77537;BME280;67783;51.656;16.106;2023-05-10T15:34:44;101452.98;;;23.77;31.96
77537;BME280;67783;51.656;16.106;2023-05-10T15:37:46;101448.80;;;23.89;32.17
77537;BME280;67783;51.656;16.106;2023-05-10T15:40:48;101450.02;;;23.87;32.36
77537;BME280;67783;51.656;16.106;2023-05-10T15:43:50;101457.80;;;23.75;32.68
77537;BME280;67783;51.656;16.106;2023-05-10T15:46:51;101452.36;;;23.67;33.02
77537;BME280;67783;51.656;16.106;2023-05-10T15:49:56;101450.81;;;23.65;32.32
77537;BME280;67783;51.656;16.106;2023-05-10T15:52:59;101444.55;;;23.56;33.03
77537;BME280;67783;51.656;16.106;2023-05-10T15:56:01;101444.39;;;23.41;33.06
77537;BME280;67783;51.656;16.106;2023-05-10T15:59:03;101453.52;;;23.26;33.60
77537;BME280;67783;51.656;16.106;2023-05-10T16:02:09;101447.26;;;23.01;33.92
77537;BME280;67783;51.656;16.106;2023-05-10T16:05:16;101454.12;;;22.89;32.96
77537;BME280;67783;51.656;16.106;2023-05-10T16:08:19;101453.95;;;22.82;33.72
77537;BME280;67783;51.656;16.106;2023-05-10T16:11:20;101460.12;;;22.76;33.63
77537;BME280;67783;51.656;16.106;2023-05-10T16:14:22;101453.64;;;22.69;33.71
77537;BME280;67783;51.656;16.106;2023-05-10T16:17:24;101461.27;;;22.58;33.99
77537;BME280;67783;51.656;16.106;2023-05-10T16:20:26;101460.10;;;22.52;34.15
77537;BME280;67783;51.656;16.106;2023-05-10T16:23:28;101454.95;;;22.41;33.81
77537;BME280;67783;51.656;16.106;2023-05-10T16:26:32;101463.14;;;22.33;33.95
77537;BME280;67783;51.656;16.106;2023-05-10T16:29:40;101462.13;;;22.42;34.13
77537;BME280;67783;51.656;16.106;2023-05-10T16:32:42;101464.20;;;22.40;33.93
77537;BME280;67783;51.656;16.106;2023-05-10T16:35:43;101462.13;;;22.42;34.56